createdAt,value
2023-05-06T00:03:00.296Z,101812.66
2023-05-06T00:06:07.000Z,101817.06
2023-05-06T00:09:10.544Z,101804.66
2023-05-06T00:12:13.432Z,101804.66
2023-05-06T00:15:16.289Z,101798.38
2023-05-06T00:18:19.065Z,101795.69
2023-05-06T00:21:23.182Z,101785.97
2023-05-06T00:24:26.034Z,101793.03
2023-05-06T00:27:28.911Z,101793.09
2023-05-06T00:30:31.729Z,101788.59
2023-05-06T00:33:34.584Z,101792.19
2023-05-06T00:36:38.988Z,101787.69
2023-05-06T00:39:41.793Z,101782.38
2023-05-06T00:42:44.599Z,101786.78
2023-05-06T00:45:47.429Z,101782.38
2023-05-06T00:48:50.646Z,101779.69
2023-05-06T00:51:56.204Z,101774.44
2023-05-06T00:54:59.409Z,101777.25
2023-05-06T00:58:02.250Z,101778.25
2023-05-06T01:01:05.333Z,101764.88
2023-05-06T01:04:08.722Z,101772.97
2023-05-06T01:07:25.623Z,101769.50
2023-05-06T01:10:36.353Z,101770.47
2023-05-06T01:13:46.299Z,101763.34
2023-05-06T01:16:54.744Z,101758.75
2023-05-06T01:20:01.711Z,101757.78
2023-05-06T01:23:09.696Z,101756.88
2023-05-06T01:26:12.451Z,101751.56
2023-05-06T01:29:16.207Z,101748.06
2023-05-06T01:32:33.970Z,101750.75
2023-05-06T01:35:47.456Z,101750.72
2023-05-06T01:38:58.944Z,101738.44
2023-05-06T01:42:03.672Z,101734.88
2023-05-06T01:45:09.144Z,101731.44
2023-05-06T01:48:12.733Z,101725.50
2023-05-06T01:51:15.501Z,101746.06
2023-05-06T01:54:19.867Z,101747.03
2023-05-06T01:57:22.661Z,101739.09
2023-05-06T02:00:26.310Z,101739.09
2023-05-06T02:03:29.192Z,101737.25
2023-05-06T02:06:32.790Z,101740.78
2023-05-06T02:09:36.993Z,101744.44
2023-05-06T02:12:40.649Z,101735.69
2023-05-06T02:15:43.576Z,101734.72
2023-05-06T02:18:51.570Z,101734.34
2023-05-06T02:21:54.382Z,101735.00
2023-05-06T02:24:58.529Z,101734.81
2023-05-06T02:28:01.323Z,101730.28
2023-05-06T02:31:04.274Z,101724.03
2023-05-06T02:34:07.029Z,101723.16
2023-05-06T02:37:09.777Z,101718.16
2023-05-06T02:40:14.444Z,101713.97
2023-05-06T02:43:17.300Z,101723.50
2023-05-06T02:46:20.118Z,101724.25
2023-05-06T02:49:23.000Z,101711.78
2023-05-06T02:52:25.815Z,101716.25
2023-05-06T02:55:29.966Z,101708.25
2023-05-06T02:58:32.781Z,101713.66
2023-05-06T03:01:35.798Z,101708.25
2023-05-06T03:04:38.735Z,101715.34
2023-05-06T03:07:42.272Z,101712.75
2023-05-06T03:10:46.534Z,101717.38
2023-05-06T03:13:51.306Z,101710.47
2023-05-06T03:16:54.441Z,101707.75
2023-05-06T03:19:58.550Z,101706.84
2023-05-06T03:23:01.489Z,101701.53
2023-05-06T03:26:06.673Z,101700.47
2023-05-06T03:29:09.779Z,101704.91
2023-05-06T03:32:12.656Z,101702.25
2023-05-06T03:35:19.567Z,101691.50
2023-05-06T03:38:26.875Z,101691.56
2023-05-06T03:41:37.197Z,101705.88
2023-05-06T03:44:40.023Z,101701.50
2023-05-06T03:47:43.929Z,101701.53
2023-05-06T03:50:48.054Z,101705.13
2023-05-06T03:53:54.094Z,101704.16
2023-05-06T03:56:59.192Z,101689.97
2023-05-06T04:00:02.228Z,101693.34
2023-05-06T04:03:07.857Z,101688.03
2023-05-06T04:06:17.876Z,101687.97
2023-05-06T04:09:20.753Z,101686.09
2023-05-06T04:12:26.016Z,101683.44
2023-05-06T04:15:32.010Z,101693.34
2023-05-06T04:18:35.605Z,101681.81
2023-05-06T04:21:42.793Z,101679.22
2023-05-06T04:24:48.096Z,101675.66
2023-05-06T04:27:53.522Z,101675.81
2023-05-06T04:30:56.749Z,101672.25
2023-05-06T04:34:06.037Z,101679.44
2023-05-06T04:37:09.330Z,101684.72
2023-05-06T04:40:18.748Z,101681.13
2023-05-06T04:43:26.452Z,101677.53
2023-05-06T04:46:34.393Z,101683.66
2023-05-06T04:49:38.496Z,101687.16
2023-05-06T04:52:42.513Z,101679.13
2023-05-06T04:55:45.956Z,101686.22
2023-05-06T04:58:50.888Z,101694.25
2023-05-06T05:01:54.205Z,101692.47
2023-05-06T05:04:57.060Z,101692.63
2023-05-06T05:08:00.233Z,101683.81
2023-05-06T05:11:07.399Z,101690.84
2023-05-06T05:14:12.402Z,101698.94
2023-05-06T05:17:15.861Z,101694.50
2023-05-06T05:20:19.300Z,101694.50
2023-05-06T05:23:22.108Z,101706.81
2023-05-06T05:26:24.899Z,101710.34
2023-05-06T05:29:30.950Z,101721.00
2023-05-06T05:32:35.752Z,101721.81
2023-05-06T05:35:39.585Z,101720.09
2023-05-06T05:38:42.520Z,101721.00
2023-05-06T05:41:45.878Z,101723.69
2023-05-06T05:44:50.656Z,101727.31
2023-05-06T05:47:54.079Z,101731.91
2023-05-06T05:50:58.305Z,101743.44
2023-05-06T05:54:02.156Z,101751.38
2023-05-06T05:57:05.134Z,101745.19
2023-05-06T06:00:13.297Z,101749.44
2023-05-06T06:03:22.149Z,101749.38
2023-05-06T06:06:25.383Z,101753.00
2023-05-06T06:09:28.862Z,101746.84
2023-05-06T06:12:32.226Z,101747.81
2023-05-06T06:15:37.527Z,101763.69
2023-05-06T06:18:40.585Z,101761.16
2023-05-06T06:21:43.449Z,101761.16
2023-05-06T06:24:46.341Z,101759.31
2023-05-06T06:27:49.117Z,101767.16
2023-05-06T06:30:53.321Z,101761.81
2023-05-06T06:33:56.268Z,101756.63
2023-05-06T06:36:59.664Z,101763.66
2023-05-06T06:40:02.450Z,101762.78
2023-05-06T06:43:05.321Z,101755.66
2023-05-06T06:46:27.420Z,101756.50
2023-05-06T06:49:32.500Z,101758.34
2023-05-06T06:52:35.322Z,101760.09
2023-05-06T06:55:38.076Z,101766.25
2023-05-06T06:58:41.109Z,101765.38
2023-05-06T07:01:45.443Z,101765.38
2023-05-06T07:04:48.285Z,101767.16
2023-05-06T07:07:51.008Z,101764.50
2023-05-06T07:10:54.014Z,101767.22
2023-05-06T07:13:56.717Z,101762.78
2023-05-06T07:17:01.512Z,101774.34
2023-05-06T07:20:04.809Z,101776.09
2023-05-06T07:23:07.534Z,101774.41
2023-05-06T07:26:10.791Z,101774.34
2023-05-06T07:29:13.571Z,101776.09
2023-05-06T07:32:17.834Z,101785.81
2023-05-06T07:35:20.683Z,101782.19
2023-05-06T07:38:24.973Z,101778.59
2023-05-06T07:41:27.710Z,101783.88
2023-05-06T07:44:30.500Z,101772.38
2023-05-06T07:47:36.308Z,101774.25
2023-05-06T07:50:39.157Z,101783.16
2023-05-06T07:53:41.957Z,101776.97
2023-05-06T07:56:45.440Z,101777.81
2023-05-06T07:59:50.351Z,101779.69
2023-05-06T08:02:54.509Z,101777.06
2023-05-06T08:05:57.462Z,101786.88
2023-05-06T08:09:00.452Z,101779.75
2023-05-06T08:12:03.270Z,101785.97
2023-05-06T08:15:07.017Z,101786.78
2023-05-06T08:18:21.774Z,101791.16
2023-05-06T08:21:25.844Z,101796.47
2023-05-06T08:24:29.670Z,101804.50
2023-05-06T08:27:32.540Z,101802.78
2023-05-06T08:30:35.420Z,101802.78
2023-05-06T08:33:39.846Z,101814.34
2023-05-06T08:36:42.644Z,101816.97
2023-05-06T08:39:46.083Z,101811.69
2023-05-06T08:42:50.057Z,101818.78
2023-05-06T08:45:52.893Z,101808.09
2023-05-06T08:48:57.198Z,101813.44
2023-05-06T08:52:00.539Z,101807.22
2023-05-06T08:55:05.300Z,101804.50
2023-05-06T08:58:09.368Z,101811.53
2023-05-06T09:01:12.230Z,101797.31
2023-05-06T09:04:18.304Z,101802.59
2023-05-06T09:07:22.179Z,101810.63
2023-05-06T09:10:25.429Z,101811.59
2023-05-06T09:13:28.266Z,101808.97
2023-05-06T09:16:31.926Z,101819.66
2023-05-06T09:19:39.194Z,101818.78
2023-05-06T09:22:42.687Z,101821.44
2023-05-06T09:25:46.959Z,101836.50
2023-05-06T09:28:49.739Z,101833.03
2023-05-06T09:31:55.073Z,101837.44
2023-05-06T09:34:59.447Z,101833.84
2023-05-06T09:38:02.223Z,101834.66
2023-05-06T09:41:06.537Z,101839.06
2023-05-06T09:44:09.584Z,101837.28
2023-05-06T09:47:12.466Z,101843.47
2023-05-06T09:50:17.160Z,101846.13
2023-05-06T09:53:21.529Z,101855.88
2023-05-06T09:56:25.968Z,101854.13
2023-05-06T09:59:30.592Z,101859.47
2023-05-06T10:02:33.932Z,101869.28
2023-05-06T10:05:38.952Z,101877.28
2023-05-06T10:08:42.869Z,101870.19
2023-05-06T10:11:47.585Z,101864.88
2023-05-06T10:14:50.457Z,101856.81
2023-05-06T10:17:54.144Z,101854.13
2023-05-06T10:21:00.638Z,101855.94
2023-05-06T10:24:08.988Z,101863.88
2023-05-06T10:27:13.545Z,101862.09
2023-05-06T10:30:17.783Z,101874.56
2023-05-06T10:33:23.303Z,101869.16
2023-05-06T10:36:29.530Z,101871.91
2023-05-06T10:39:33.098Z,101875.44
2023-05-06T10:42:36.009Z,101873.69
2023-05-06T10:46:00.272Z,101876.34
2023-05-06T10:49:20.373Z,101885.28
2023-05-06T10:52:44.968Z,101882.66
2023-05-06T10:55:47.792Z,101884.41
2023-05-06T10:58:50.652Z,101889.75
2023-05-06T11:01:57.334Z,101891.47
2023-05-06T11:05:02.185Z,101909.28
2023-05-06T11:08:12.468Z,101909.25
2023-05-06T11:11:52.343Z,101915.47
2023-05-06T11:14:55.168Z,101909.28
2023-05-06T11:17:58.163Z,101911.09
2023-05-06T11:21:34.612Z,101920.88
2023-05-06T11:24:42.059Z,101922.66
2023-05-06T11:27:44.938Z,101919.09
2023-05-06T11:30:56.019Z,101914.66
2023-05-06T11:34:02.433Z,101913.81
2023-05-06T11:37:06.797Z,101917.31
2023-05-06T11:40:16.616Z,101916.41
2023-05-06T11:43:19.589Z,101921.75
2023-05-06T11:46:23.566Z,101922.63
2023-05-06T11:49:27.407Z,101918.16
2023-05-06T11:52:31.384Z,101919.91
2023-05-06T11:55:36.512Z,101926.13
2023-05-06T11:58:39.264Z,101922.50
2023-05-06T12:01:43.657Z,101931.44
2023-05-06T12:04:49.987Z,101932.31
2023-05-06T12:07:53.059Z,101932.34
2023-05-06T12:11:00.737Z,101938.56
2023-05-06T12:14:05.368Z,101939.47
2023-05-06T12:17:08.384Z,101936.81
2023-05-06T12:20:12.947Z,101942.16
2023-05-06T12:23:17.148Z,101944.81
2023-05-06T12:26:22.199Z,101943.09
2023-05-06T12:29:24.940Z,101946.66
2023-05-06T12:32:27.861Z,101945.75
2023-05-06T12:35:32.189Z,101949.31
2023-05-06T12:38:34.945Z,101958.13
2023-05-06T12:41:41.034Z,101962.59
2023-05-06T12:44:43.801Z,101967.91
2023-05-06T12:47:53.867Z,101968.81
2023-05-06T12:50:56.715Z,101966.16
2023-05-06T12:53:59.446Z,101972.38
2023-05-06T12:57:03.868Z,101964.38
2023-05-06T13:00:10.006Z,101968.78
2023-05-06T13:03:14.360Z,101968.78
2023-05-06T13:06:17.147Z,101964.31
2023-05-06T13:09:19.913Z,101970.53
2023-05-06T13:12:24.067Z,101978.50
2023-05-06T13:15:27.019Z,101976.75
2023-05-06T13:18:30.513Z,101981.16
2023-05-06T13:21:33.292Z,101986.53
2023-05-06T13:24:36.463Z,101992.75
2023-05-06T13:27:40.591Z,101991.88
2023-05-06T13:30:43.489Z,101995.41
2023-05-06T13:33:46.232Z,101998.97
2023-05-06T13:36:49.668Z,102009.63
2023-05-06T13:39:52.445Z,101993.66
2023-05-06T13:42:56.585Z,101994.53
2023-05-06T13:45:59.415Z,101997.16
2023-05-06T13:49:02.373Z,101993.63
2023-05-06T13:52:08.010Z,101998.97
2023-05-06T13:55:11.930Z,102006.91
2023-05-06T13:58:17.082Z,102008.69
2023-05-06T14:01:20.006Z,102006.03
2023-05-06T14:04:23.289Z,102013.16
2023-05-06T14:07:26.067Z,102008.75
2023-05-06T14:10:29.100Z,102005.16
2023-05-06T14:13:34.601Z,102006.97
2023-05-06T14:16:37.550Z,102000.69
2023-05-06T14:19:40.462Z,102000.69
2023-05-06T14:22:43.355Z,101992.69
2023-05-06T14:25:46.243Z,101996.22
2023-05-06T14:28:50.338Z,101994.50
2023-05-06T14:31:53.731Z,101998.00
2023-05-06T14:34:56.541Z,101998.00
2023-05-06T14:37:59.342Z,102001.56
2023-05-06T14:41:02.067Z,102009.56
2023-05-06T14:44:06.579Z,102000.75
2023-05-06T14:47:09.403Z,102011.41
2023-05-06T14:50:13.352Z,102014.09
2023-05-06T14:53:16.216Z,102009.66
2023-05-06T14:56:19.036Z,102015.00
2023-05-06T14:59:23.151Z,102010.59
2023-05-06T15:02:26.447Z,102014.09
2023-05-06T15:05:29.277Z,102006.13
2023-05-06T15:08:32.024Z,102007.94
2023-05-06T15:11:34.829Z,102015.88
2023-05-06T15:14:39.258Z,102015.00
2023-05-06T15:17:42.433Z,102012.31
2023-05-06T15:20:45.243Z,102015.00
2023-05-06T15:23:48.269Z,102020.31
2023-05-06T15:26:50.988Z,102026.59
2023-05-06T15:29:55.190Z,102018.66
2023-05-06T15:32:58.003Z,102030.16
2023-05-06T15:36:01.024Z,102033.63
2023-05-06T15:39:04.260Z,102028.25
2023-05-06T15:42:07.246Z,102033.50
2023-05-06T15:45:12.501Z,102028.91
2023-05-06T15:48:15.283Z,102038.63
2023-05-06T15:51:18.367Z,102035.06
2023-05-06T15:54:21.111Z,102034.19
2023-05-06T15:57:24.263Z,102040.41
2023-05-06T16:00:28.541Z,102035.13
2023-05-06T16:03:31.829Z,102029.72
2023-05-06T16:06:35.508Z,102031.53
2023-05-06T16:09:38.661Z,102042.19
2023-05-06T16:12:41.472Z,102035.97
2023-05-06T16:15:45.654Z,102035.97
2023-05-06T16:18:48.426Z,102035.06
2023-05-06T16:21:51.208Z,102035.94
2023-05-06T16:24:53.971Z,102035.06
2023-05-06T16:27:56.983Z,102033.38
2023-05-06T16:31:02.899Z,102038.69
2023-05-06T16:34:06.160Z,102043.16
2023-05-06T16:37:09.721Z,102042.31
2023-05-06T16:40:14.508Z,102043.22
2023-05-06T16:43:17.389Z,102043.16
2023-05-06T16:46:23.962Z,102034.19
2023-05-06T16:49:27.984Z,102041.31
2023-05-06T16:52:31.077Z,102047.53
2023-05-06T16:55:33.874Z,102045.69
2023-05-06T16:58:37.201Z,102046.56
2023-05-06T17:01:41.285Z,102046.56
2023-05-06T17:04:44.068Z,102051.00
2023-05-06T17:07:48.386Z,102057.22
2023-05-06T17:10:51.262Z,102056.34
2023-05-06T17:13:54.789Z,102054.63
2023-05-06T17:17:02.331Z,102062.66
2023-05-06T17:20:06.267Z,102061.81
2023-05-06T17:23:09.100Z,102054.72
2023-05-06T17:26:12.032Z,102059.16
2023-05-06T17:29:15.122Z,102058.31
2023-05-06T17:32:19.885Z,102068.09
2023-05-06T17:35:22.758Z,102070.72
2023-05-06T17:38:25.598Z,102077.84
2023-05-06T17:41:28.898Z,102070.72
2023-05-06T17:44:32.938Z,102076.06
2023-05-06T17:47:37.182Z,102077.03
2023-05-06T17:50:39.935Z,102080.56
2023-05-06T17:53:42.828Z,102083.22
2023-05-06T17:56:50.298Z,102088.56
2023-05-06T17:59:53.163Z,102087.66
2023-05-06T18:02:57.810Z,102090.34
2023-05-06T18:06:00.669Z,102099.19
2023-05-06T18:09:03.523Z,102096.50
2023-05-06T18:12:06.890Z,102102.72
2023-05-06T18:15:11.327Z,102107.16
2023-05-06T18:18:15.980Z,102111.56
2023-05-06T18:21:18.834Z,102112.50
2023-05-06T18:24:21.918Z,102108.94
2023-05-06T18:27:25.077Z,102105.31
2023-05-06T18:30:27.853Z,102113.31
2023-05-06T18:33:31.952Z,102121.31
2023-05-06T18:36:35.527Z,102120.44
2023-05-06T18:39:41.692Z,102117.84
2023-05-06T18:42:44.437Z,102116.13
2023-05-06T18:45:47.367Z,102123.19
2023-05-06T18:48:51.570Z,102127.69
2023-05-06T18:51:54.869Z,102126.69
2023-05-06T18:54:57.674Z,102128.50
2023-05-06T18:58:04.747Z,102127.56
2023-05-06T19:01:08.520Z,102140.88
2023-05-06T19:04:12.952Z,102136.38
2023-05-06T19:07:16.968Z,102148.91
2023-05-06T19:10:19.972Z,102136.50
2023-05-06T19:13:22.741Z,102139.13
2023-05-06T19:16:25.494Z,102139.13
2023-05-06T19:19:31.287Z,102144.50
2023-05-06T19:22:34.108Z,102140.97
2023-05-06T19:25:38.004Z,102137.41
2023-05-06T19:28:41.349Z,102147.19
2023-05-06T19:31:44.068Z,102147.19
2023-05-06T19:34:48.189Z,102148.97
2023-05-06T19:37:51.114Z,102148.03
2023-05-06T19:40:54.496Z,102154.25
2023-05-06T19:43:57.337Z,102150.66
2023-05-06T19:47:00.164Z,102147.19
2023-05-06T19:50:05.368Z,102145.41
2023-05-06T19:53:08.499Z,102143.72
2023-05-06T19:56:12.415Z,102148.19
2023-05-06T19:59:15.248Z,102149.09
2023-05-06T20:02:18.071Z,102146.44
2023-05-06T20:05:22.648Z,102148.19
2023-05-06T20:08:26.260Z,102146.44
2023-05-06T20:11:29.039Z,102153.53
2023-05-06T20:14:32.057Z,102156.16
2023-05-06T20:17:35.237Z,102156.22
2023-05-06T20:20:40.258Z,102161.53
2023-05-06T20:23:43.044Z,102162.38
2023-05-06T20:26:45.818Z,102162.38
2023-05-06T20:29:49.778Z,102162.38
2023-05-06T20:32:52.594Z,102165.03
2023-05-06T20:35:57.820Z,102163.28
2023-05-06T20:39:00.906Z,102165.13
2023-05-06T20:42:03.788Z,102167.78
2023-05-06T20:45:08.108Z,102170.44
2023-05-06T20:48:12.937Z,102171.38
2023-05-06T20:51:18.697Z,102178.44
2023-05-06T20:54:21.619Z,102170.50
2023-05-06T20:57:24.611Z,102173.13
2023-05-06T21:00:27.353Z,102174.91
2023-05-06T21:03:30.426Z,102172.22
2023-05-06T21:06:34.683Z,102166.88
2023-05-06T21:09:38.077Z,102177.53
2023-05-06T21:13:36.673Z,102174.88
2023-05-06T21:16:41.044Z,102173.13
2023-05-06T21:19:43.835Z,102174.91
2023-05-06T21:22:49.119Z,102182.97
2023-05-06T21:25:51.989Z,102178.50
2023-05-06T21:28:54.785Z,102186.56
2023-05-06T21:31:57.953Z,102181.19
2023-05-06T21:35:03.080Z,102183.91
2023-05-06T21:38:07.606Z,102178.56
2023-05-06T21:41:10.388Z,102178.56
2023-05-06T21:44:13.140Z,102180.28
2023-05-06T21:47:16.004Z,102189.22
2023-05-06T21:50:18.793Z,102188.31
2023-05-06T21:53:22.968Z,102188.31
2023-05-06T21:56:25.987Z,102183.84
2023-05-06T21:59:28.731Z,102185.56
2023-05-06T22:02:31.529Z,102182.97
2023-05-06T22:05:34.432Z,102188.31
2023-05-06T22:08:38.579Z,102183.91
2023-05-06T22:11:41.326Z,102182.06
2023-05-06T22:14:44.052Z,102187.41
2023-05-06T22:17:46.910Z,102184.72
2023-05-06T22:20:50.833Z,102191.78
2023-05-06T22:23:54.927Z,102195.41
2023-05-06T22:26:57.646Z,102194.56
2023-05-06T22:30:00.379Z,102192.81
2023-05-06T22:33:03.249Z,102197.25
2023-05-06T22:36:06.636Z,102199.03
2023-05-06T22:39:10.820Z,102186.56
2023-05-06T22:42:13.652Z,102186.66
2023-05-06T22:45:16.575Z,102188.38
2023-05-06T22:48:19.349Z,102192.75
2023-05-06T22:51:22.272Z,102184.72
2023-05-06T22:54:26.365Z,102184.72
2023-05-06T22:57:29.164Z,102182.91
2023-05-06T23:00:31.983Z,102184.72
2023-05-06T23:03:34.895Z,102182.97
2023-05-06T23:06:38.291Z,102183.97
2023-05-06T23:09:42.375Z,102179.53
2023-05-06T23:12:45.285Z,102191.09
2023-05-06T23:15:48.112Z,102191.22
2023-05-06T23:18:50.840Z,102193.91
2023-05-06T23:25:32.904Z,102195.53
2023-05-06T23:28:35.803Z,102192.75
2023-05-06T23:31:38.753Z,102197.13
2023-05-06T23:34:41.548Z,102191.72
2023-05-06T23:37:44.285Z,102197.03
2023-05-06T23:40:48.444Z,102199.72
2023-05-06T23:43:51.196Z,102201.56
2023-05-06T23:46:54.068Z,102195.47
2023-05-06T23:49:57.788Z,102198.09
2023-05-06T23:53:00.623Z,102193.69
2023-05-06T23:56:05.161Z,102193.63
2023-05-06T23:59:07.935Z,102190.06
